createdAt,value
2023-01-23T00:00:15.815Z,3.60
2023-01-23T00:25:31.518Z,3.60
2023-01-23T00:27:58.430Z,3.60
2023-01-23T00:30:25.308Z,3.60
2023-01-23T00:32:52.295Z,3.60
2023-01-23T00:35:20.538Z,3.50
2023-01-23T00:37:47.477Z,3.50
2023-01-23T00:40:14.586Z,3.50
2023-01-23T00:42:44.332Z,3.50
2023-01-23T00:45:11.503Z,3.50
2023-01-23T00:47:38.467Z,3.50
2023-01-23T00:50:05.513Z,3.50
2023-01-23T00:52:32.481Z,3.50
2023-01-23T00:54:59.398Z,3.50
2023-01-23T00:57:26.240Z,3.40
2023-01-23T00:59:53.194Z,3.40
2023-01-23T01:02:20.232Z,3.40
2023-01-23T01:04:47.091Z,3.50
2023-01-23T01:07:14.015Z,3.50
2023-01-23T01:09:40.943Z,3.50
2023-01-23T01:12:07.936Z,3.50
2023-01-23T01:14:35.064Z,3.50
2023-01-23T01:17:02.026Z,3.50
2023-01-23T01:19:29.645Z,3.50
2023-01-23T01:21:56.682Z,3.50
2023-01-23T01:24:23.597Z,3.50
2023-01-23T01:26:50.498Z,3.50
2023-01-23T01:29:17.719Z,3.50
2023-01-23T01:31:44.762Z,3.50
2023-01-23T01:34:11.804Z,3.50
2023-01-23T01:36:38.699Z,3.40
2023-01-23T01:39:05.835Z,3.50
2023-01-23T01:41:32.974Z,3.40
2023-01-23T01:44:00.425Z,3.40
2023-01-23T01:46:28.174Z,3.30
2023-01-23T01:49:01.081Z,3.30
2023-01-23T01:51:33.878Z,3.30
2023-01-23T01:54:00.924Z,3.30
2023-01-23T01:56:29.858Z,3.30
2023-01-23T01:58:57.104Z,3.20
2023-01-23T02:01:24.335Z,3.20
2023-01-23T02:03:52.101Z,3.20
2023-01-23T02:06:19.423Z,3.20
2023-01-23T02:08:59.665Z,3.10
2023-01-23T02:11:26.698Z,3.20
2023-01-23T02:13:55.583Z,3.20
2023-01-23T02:16:25.336Z,3.10
2023-01-23T02:18:54.427Z,3.10
2023-01-23T02:21:25.140Z,3.10
2023-01-23T02:23:55.520Z,3.10
2023-01-23T02:26:25.911Z,3.10
2023-01-23T02:28:54.284Z,3.10
2023-01-23T02:31:22.344Z,3.10
2023-01-23T02:33:51.456Z,3.10
2023-01-23T02:36:19.922Z,3.10
2023-01-23T02:38:55.474Z,3.10
2023-01-23T02:41:30.812Z,3.10
2023-01-23T02:43:59.920Z,3.10
2023-01-23T02:46:27.313Z,3.10
2023-01-23T02:48:54.452Z,3.10
2023-01-23T02:51:22.469Z,3.10
2023-01-23T02:53:49.802Z,3.10
2023-01-23T02:56:16.872Z,3.20
2023-01-23T02:59:02.963Z,3.10
2023-01-23T03:01:30.093Z,3.20
2023-01-23T03:03:57.226Z,3.10
2023-01-23T03:06:24.443Z,3.10
2023-01-23T03:08:51.352Z,3.10
2023-01-23T03:11:18.948Z,3.10
2023-01-23T03:13:47.181Z,3.10
2023-01-23T03:16:14.555Z,3.10
2023-01-23T03:18:53.424Z,3.10
2023-01-23T03:21:20.843Z,3.20
2023-01-23T03:23:48.603Z,3.10
2023-01-23T03:26:16.094Z,3.10
2023-01-23T03:29:01.729Z,3.20
2023-01-23T03:31:28.768Z,3.20
2023-01-23T03:33:55.728Z,3.20
2023-01-23T03:36:22.686Z,3.20
2023-01-23T03:39:12.843Z,3.20
2023-01-23T03:41:42.379Z,3.30
2023-01-23T03:44:09.600Z,3.30
2023-01-23T03:46:36.780Z,3.30
2023-01-23T03:49:03.775Z,3.30
2023-01-23T03:51:30.850Z,3.30
2023-01-23T03:53:57.813Z,3.20
2023-01-23T03:56:24.846Z,3.20
2023-01-23T03:58:51.892Z,3.20
2023-01-23T04:01:19.250Z,3.20
2023-01-23T04:03:46.417Z,3.20
2023-01-23T04:06:13.402Z,3.10
2023-01-23T04:08:40.274Z,3.10
2023-01-23T04:11:08.261Z,3.10
2023-01-23T04:13:35.260Z,3.00
2023-01-23T04:16:02.613Z,3.00
2023-01-23T04:18:29.494Z,3.00
2023-01-23T04:20:56.928Z,3.10
2023-01-23T04:23:24.010Z,3.00
2023-01-23T04:25:51.573Z,3.00
2023-01-23T04:28:18.772Z,3.00
2023-01-23T04:30:45.790Z,3.00
2023-01-23T04:33:13.347Z,2.90
2023-01-23T04:35:40.164Z,2.90
2023-01-23T04:38:07.106Z,2.90
2023-01-23T04:40:33.935Z,2.90
2023-01-23T04:43:00.842Z,2.90
2023-01-23T04:45:27.823Z,3.00
2023-01-23T04:47:55.274Z,2.90
2023-01-23T04:50:22.327Z,2.90
2023-01-23T04:52:49.408Z,2.90
2023-01-23T04:55:16.393Z,2.90
2023-01-23T04:57:43.565Z,2.90
2023-01-23T05:00:10.789Z,2.90
2023-01-23T05:02:37.766Z,3.00
2023-01-23T05:05:05.034Z,3.00
2023-01-23T05:07:31.930Z,3.00
2023-01-23T05:09:58.933Z,3.00
2023-01-23T05:12:25.843Z,3.00
2023-01-23T05:14:52.755Z,3.00
2023-01-23T05:17:19.955Z,3.00
2023-01-23T05:19:46.854Z,3.00
2023-01-23T05:22:13.830Z,2.90
2023-01-23T05:24:40.736Z,2.90
2023-01-23T05:27:07.658Z,3.00
2023-01-23T05:29:34.523Z,3.00
2023-01-23T05:32:01.477Z,2.90
2023-01-23T05:34:28.418Z,3.00
2023-01-23T05:36:55.427Z,3.00
2023-01-23T05:39:22.479Z,3.00
2023-01-23T05:41:49.605Z,2.90
2023-01-23T05:44:16.546Z,3.00
2023-01-23T05:46:43.389Z,3.00
2023-01-23T05:49:10.300Z,3.00
2023-01-23T05:51:37.280Z,3.00
2023-01-23T05:54:04.306Z,3.00
2023-01-23T05:56:31.220Z,3.00
2023-01-23T05:58:58.811Z,3.00
2023-01-23T06:01:25.964Z,3.00
2023-01-23T06:03:52.996Z,3.00
2023-01-23T06:06:19.889Z,3.00
2023-01-23T06:08:46.791Z,2.90
2023-01-23T06:11:13.749Z,3.00
2023-01-23T06:13:40.641Z,3.00
2023-01-23T06:16:10.534Z,2.90
2023-01-23T06:18:37.709Z,3.00
2023-01-23T06:21:04.785Z,3.00
2023-01-23T06:23:31.802Z,3.10
2023-01-23T06:26:04.721Z,3.20
2023-01-23T06:28:31.665Z,3.10
2023-01-23T06:31:02.509Z,3.20
2023-01-23T06:33:30.073Z,3.20
2023-01-23T06:35:57.676Z,3.10
2023-01-23T06:38:24.665Z,3.10
2023-01-23T06:40:51.624Z,3.00
2023-01-23T06:43:18.620Z,3.00
2023-01-23T06:45:46.325Z,3.10
2023-01-23T06:48:13.414Z,3.10
2023-01-23T06:50:40.924Z,3.10
2023-01-23T06:53:08.442Z,3.10
2023-01-23T06:55:35.975Z,3.10
2023-01-23T06:58:03.248Z,3.10
2023-01-23T07:00:30.241Z,3.10
2023-01-23T07:02:59.758Z,3.10
2023-01-23T07:05:27.005Z,3.00
2023-01-23T07:07:53.941Z,3.10
2023-01-23T07:10:21.275Z,3.10
2023-01-23T07:12:48.559Z,3.10
2023-01-23T07:15:15.489Z,3.10
2023-01-23T07:17:42.505Z,3.00
2023-01-23T07:20:10.236Z,3.00
2023-01-23T07:22:38.260Z,3.00
2023-01-23T07:25:05.596Z,3.00
2023-01-23T07:27:33.658Z,3.10
2023-01-23T07:30:00.576Z,3.10
2023-01-23T07:32:27.440Z,3.20
2023-01-23T07:34:54.458Z,3.10
2023-01-23T07:37:21.355Z,3.10
2023-01-23T07:39:49.311Z,3.10
2023-01-23T07:42:16.177Z,3.10
2023-01-23T07:44:43.056Z,3.10
2023-01-23T07:47:10.207Z,3.10
2023-01-23T07:49:37.152Z,3.10
2023-01-23T07:52:04.647Z,3.10
2023-01-23T07:54:31.561Z,3.20
2023-01-23T07:56:58.691Z,3.20
2023-01-23T07:59:25.681Z,3.20
2023-01-23T08:01:52.914Z,3.20
2023-01-23T08:04:20.048Z,3.20
2023-01-23T08:06:46.929Z,3.10
2023-01-23T08:09:13.820Z,3.20
2023-01-23T08:11:40.880Z,3.20
2023-01-23T08:14:07.800Z,3.20
2023-01-23T08:16:34.689Z,3.20
2023-01-23T08:19:01.753Z,3.20
2023-01-23T08:21:28.716Z,3.20
2023-01-23T08:23:55.577Z,3.30
2023-01-23T08:26:22.531Z,3.30
2023-01-23T08:28:49.400Z,3.30
2023-01-23T08:31:16.469Z,3.30
2023-01-23T08:33:43.422Z,3.20
2023-01-23T08:36:11.847Z,3.30
2023-01-23T08:38:38.851Z,3.30
2023-01-23T08:41:06.344Z,3.40
2023-01-23T08:43:33.433Z,3.40
2023-01-23T08:46:00.554Z,3.40
2023-01-23T08:48:28.500Z,3.40
2023-01-23T08:51:00.225Z,3.40
2023-01-23T08:53:27.398Z,3.40
2023-01-23T08:55:54.652Z,3.50
2023-01-23T08:58:21.600Z,3.50
2023-01-23T09:00:49.227Z,3.50
2023-01-23T09:03:16.165Z,3.60
2023-01-23T09:05:43.143Z,3.60
2023-01-23T09:08:10.212Z,3.60
2023-01-23T09:10:37.256Z,3.50
2023-01-23T09:13:04.512Z,3.60
2023-01-23T09:15:31.639Z,3.50
2023-01-23T09:17:58.607Z,3.50
2023-01-23T09:20:29.342Z,3.60
2023-01-23T09:22:56.260Z,3.50
2023-01-23T09:25:23.401Z,3.60
2023-01-23T09:27:50.309Z,3.60
2023-01-23T09:30:17.495Z,3.60
2023-01-23T09:32:44.474Z,3.60
2023-01-23T09:35:12.067Z,3.60
2023-01-23T09:37:58.940Z,3.60
2023-01-23T09:40:35.974Z,3.70
2023-01-23T09:43:13.385Z,3.70
2023-01-23T09:45:41.371Z,3.70
2023-01-23T09:48:28.340Z,3.70
2023-01-23T09:51:02.484Z,3.70
2023-01-23T09:53:34.368Z,3.80
2023-01-23T09:56:27.664Z,3.80
2023-01-23T09:59:08.539Z,3.80
2023-01-23T10:01:36.569Z,3.80
2023-01-23T10:04:04.693Z,3.90
2023-01-23T10:06:54.629Z,3.90
2023-01-23T10:09:28.086Z,4.00
2023-01-23T10:12:24.558Z,4.00
2023-01-23T10:14:57.409Z,4.00
2023-01-23T10:17:35.715Z,4.00
2023-01-23T10:20:15.029Z,4.00
2023-01-23T10:22:54.260Z,4.00
2023-01-23T10:25:26.905Z,4.00
2023-01-23T10:27:57.108Z,4.00
2023-01-23T10:30:28.978Z,4.00
2023-01-23T10:32:56.014Z,4.00
2023-01-23T10:35:26.079Z,4.10
2023-01-23T10:37:52.969Z,4.10
2023-01-23T10:40:39.922Z,4.10
2023-01-23T10:43:12.601Z,4.10
2023-01-23T10:45:40.437Z,4.10
2023-01-23T10:48:27.608Z,4.10
2023-01-23T10:50:55.636Z,4.10
2023-01-23T10:53:22.706Z,4.20
2023-01-23T10:55:50.627Z,4.30
2023-01-23T10:58:49.517Z,4.30
2023-01-23T11:01:25.775Z,4.40
2023-01-23T11:03:53.065Z,4.50
2023-01-23T11:06:21.492Z,4.60
2023-01-23T11:08:55.483Z,4.60
2023-01-23T11:11:24.033Z,4.70
2023-01-23T11:14:03.419Z,4.70
2023-01-23T11:16:30.751Z,4.70
2023-01-23T11:19:03.984Z,4.60
2023-01-23T11:21:34.205Z,4.60
2023-01-23T11:24:08.391Z,4.60
2023-01-23T11:26:36.263Z,4.50
2023-01-23T11:29:03.900Z,4.50
2023-01-23T11:31:32.153Z,4.60
2023-01-23T11:34:29.075Z,4.60
2023-01-23T11:37:05.125Z,4.70
2023-01-23T11:39:51.075Z,4.70
2023-01-23T11:42:19.703Z,4.70
2023-01-23T11:44:47.442Z,4.80
2023-01-23T11:47:24.596Z,4.90
2023-01-23T11:50:11.939Z,4.90
2023-01-23T11:52:48.061Z,5.00
2023-01-23T11:55:36.846Z,5.00
2023-01-23T11:58:15.913Z,5.00
2023-01-23T12:00:51.041Z,5.00
2023-01-23T12:03:37.085Z,5.00
2023-01-23T12:09:14.738Z,4.90
2023-01-23T12:11:55.215Z,4.90
2023-01-23T12:14:24.106Z,4.90
2023-01-23T12:16:51.136Z,4.90
2023-01-23T12:19:33.653Z,4.80
2023-01-23T12:22:07.365Z,4.90
2023-01-23T12:24:40.440Z,5.00
2023-01-23T12:27:14.766Z,5.00
2023-01-23T12:29:44.807Z,5.00
2023-01-23T12:32:11.785Z,5.00
2023-01-23T12:34:58.019Z,4.90
2023-01-23T12:37:31.252Z,5.10
2023-01-23T12:40:08.608Z,5.10
2023-01-23T12:42:44.113Z,5.00
2023-01-23T12:45:11.040Z,5.00
2023-01-23T12:47:54.035Z,4.90
2023-01-23T12:50:23.735Z,4.90
2023-01-23T12:52:58.898Z,4.90
2023-01-23T12:55:33.224Z,4.80
2023-01-23T12:58:08.973Z,4.70
2023-01-23T13:00:39.622Z,4.80
2023-01-23T13:03:06.472Z,4.80
2023-01-23T13:05:48.978Z,4.80
2023-01-23T13:08:25.047Z,4.70
2023-01-23T13:11:29.809Z,4.70
2023-01-23T13:13:56.790Z,4.70
2023-01-23T13:16:32.557Z,4.70
2023-01-23T13:19:21.174Z,4.60
2023-01-23T13:22:03.056Z,4.60
2023-01-23T13:25:10.303Z,4.60
2023-01-23T13:27:41.282Z,4.60
2023-01-23T13:30:26.575Z,4.60
2023-01-23T13:33:01.364Z,4.70
2023-01-23T13:35:56.195Z,4.70
2023-01-23T13:38:23.151Z,4.60
2023-01-23T13:41:05.357Z,4.70
2023-01-23T13:43:50.520Z,4.70
2023-01-23T13:46:18.364Z,4.60
2023-01-23T14:22:43.833Z,5.70
2023-01-23T14:25:18.509Z,5.80
2023-01-23T14:27:53.372Z,5.90
2023-01-23T14:30:27.268Z,5.80
2023-01-23T14:32:54.631Z,5.70
2023-01-23T14:35:27.291Z,5.70
2023-01-23T14:37:55.791Z,5.60
2023-01-23T14:40:27.797Z,5.60
2023-01-23T14:42:59.044Z,5.70
2023-01-23T14:45:28.813Z,5.70
2023-01-23T14:48:05.029Z,5.80
2023-01-23T14:50:32.941Z,5.80
2023-01-23T14:53:07.250Z,5.80
2023-01-23T14:55:39.400Z,5.80
2023-01-23T14:58:07.680Z,5.70
2023-01-23T15:00:35.523Z,5.60
2023-01-23T15:03:04.537Z,5.60
2023-01-23T15:05:33.146Z,5.60
2023-01-23T15:08:04.511Z,5.60
2023-01-23T15:10:46.673Z,5.70
2023-01-23T15:13:20.505Z,5.80
2023-01-23T15:15:52.609Z,6.00
2023-01-23T15:18:24.427Z,6.10
2023-01-23T15:20:55.237Z,6.10
2023-01-23T15:23:25.857Z,6.20
2023-01-23T15:26:08.580Z,6.20
2023-01-23T15:28:48.634Z,6.20
2023-01-23T15:31:28.080Z,6.20
2023-01-23T15:33:56.349Z,6.20
2023-01-23T15:36:23.492Z,6.10
2023-01-23T15:38:50.531Z,6.10
2023-01-23T15:41:26.703Z,6.10
2023-01-23T15:44:00.904Z,6.10
2023-01-23T15:46:27.932Z,6.10
2023-01-23T15:48:54.892Z,6.10
2023-01-23T15:51:21.901Z,6.00
2023-01-23T15:53:49.088Z,6.00
2023-01-23T15:56:24.692Z,6.00
2023-01-23T15:58:51.682Z,6.00
2023-01-23T16:01:18.850Z,6.00
2023-01-23T16:03:45.907Z,5.80
2023-01-23T16:06:17.623Z,5.70
2023-01-23T16:08:46.917Z,5.60
2023-01-23T16:11:17.255Z,5.50
2023-01-23T16:13:44.615Z,5.40
2023-01-23T16:16:15.411Z,5.40
2023-01-23T16:18:42.517Z,5.40
2023-01-23T16:21:20.257Z,5.30
2023-01-23T16:23:48.067Z,5.20
2023-01-23T16:26:23.251Z,5.20
2023-01-23T16:28:55.363Z,5.20
2023-01-23T16:31:24.897Z,5.20
2023-01-23T16:33:52.127Z,5.20
2023-01-23T16:36:19.772Z,5.20
2023-01-23T16:38:53.909Z,5.20
2023-01-23T16:41:25.830Z,5.20
2023-01-23T16:43:53.063Z,5.30
2023-01-23T16:46:20.392Z,5.40
2023-01-23T16:48:47.717Z,5.40
2023-01-23T16:51:19.623Z,5.40
2023-01-23T16:53:50.743Z,5.40
2023-01-23T16:56:22.153Z,5.50
2023-01-23T16:58:49.757Z,5.50
2023-01-23T17:01:20.801Z,5.60
2023-01-23T17:03:59.092Z,5.60
2023-01-23T17:06:26.432Z,5.50
2023-01-23T17:08:53.872Z,5.40
2023-01-23T17:11:24.311Z,5.40
2023-01-23T17:13:54.901Z,5.30
2023-01-23T17:16:27.423Z,5.30
2023-01-23T17:18:56.204Z,5.30
2023-01-23T17:21:25.278Z,5.30
2023-01-23T17:24:18.356Z,5.20
2023-01-23T17:26:46.065Z,5.20
2023-01-23T17:29:13.302Z,5.10
2023-01-23T17:31:40.364Z,5.00
2023-01-23T17:34:07.890Z,5.00
2023-01-23T17:36:35.618Z,4.90
2023-01-23T17:39:02.871Z,4.90
2023-01-23T17:41:32.196Z,4.90
2023-01-23T17:43:59.279Z,5.00
2023-01-23T17:46:27.734Z,5.00
2023-01-23T17:48:55.925Z,5.00
2023-01-23T17:51:23.832Z,4.90
2023-01-23T17:53:54.081Z,4.90
2023-01-23T17:56:21.467Z,4.90
2023-01-23T17:58:48.622Z,4.80
2023-01-23T18:01:20.119Z,4.80
2023-01-23T18:03:47.355Z,4.80
2023-01-23T18:06:14.634Z,4.80
2023-01-23T18:08:42.690Z,4.80
2023-01-23T18:11:20.585Z,4.80
2023-01-23T18:13:47.757Z,4.80
2023-01-23T18:16:20.403Z,4.80
2023-01-23T18:18:53.229Z,4.90
2023-01-23T18:21:20.951Z,4.90
2023-01-23T18:23:48.651Z,4.90
2023-01-23T18:26:31.311Z,4.90
2023-01-23T18:29:17.921Z,4.80
2023-01-23T18:31:59.292Z,4.70
2023-01-23T18:34:29.566Z,4.70
2023-01-23T18:37:17.667Z,4.70
2023-01-23T18:40:03.571Z,4.70
2023-01-23T18:42:38.994Z,4.70
2023-01-23T18:45:10.577Z,4.70
2023-01-23T18:47:38.097Z,4.70
2023-01-23T18:50:05.687Z,4.70
2023-01-23T18:52:52.258Z,4.70
2023-01-23T18:55:38.020Z,4.70
2023-01-23T18:58:23.665Z,4.70
2023-01-23T19:00:58.548Z,4.70
2023-01-23T19:03:32.775Z,4.70
2023-01-23T19:05:59.930Z,4.70
2023-01-23T19:08:28.497Z,4.60
2023-01-23T19:11:06.369Z,4.70
2023-01-23T19:13:36.593Z,4.70
2023-01-23T19:16:09.823Z,4.60
2023-01-23T19:18:47.512Z,4.60
2023-01-23T19:21:23.843Z,4.60
2023-01-23T19:23:51.984Z,4.60
2023-01-23T19:26:19.242Z,4.60
2023-01-23T19:28:46.282Z,4.60
2023-01-23T19:31:40.008Z,4.60
2023-01-23T19:34:07.308Z,4.60
2023-01-23T19:36:35.338Z,4.60
2023-01-23T19:39:04.266Z,4.60
2023-01-23T19:41:37.323Z,4.60
2023-01-23T19:44:04.277Z,4.60
2023-01-23T19:46:32.573Z,4.60
2023-01-23T19:49:01.242Z,4.60
2023-01-23T19:51:30.228Z,4.60
2023-01-23T19:53:57.624Z,4.60
2023-01-23T19:56:24.726Z,4.60
2023-01-23T19:58:51.655Z,4.60
2023-01-23T20:01:21.219Z,4.60
2023-01-23T20:03:48.313Z,4.60
2023-01-23T20:06:15.271Z,4.50
2023-01-23T20:08:42.321Z,4.50
2023-01-23T20:11:12.933Z,4.50
2023-01-23T20:13:42.290Z,4.50
2023-01-23T20:16:10.200Z,4.50
2023-01-23T20:18:37.250Z,4.50
2023-01-23T20:21:04.806Z,4.50
2023-01-23T20:23:31.838Z,4.50
2023-01-23T20:26:02.055Z,4.50
2023-01-23T20:28:29.541Z,4.50
2023-01-23T20:30:56.871Z,4.50
2023-01-23T20:33:24.658Z,4.50
2023-01-23T20:35:52.951Z,4.50
2023-01-23T20:38:21.102Z,4.50
2023-01-23T20:40:48.553Z,4.60
2023-01-23T20:43:15.704Z,4.60
2023-01-23T20:45:49.391Z,4.50
2023-01-23T20:48:17.069Z,4.60
2023-01-23T20:50:44.167Z,4.50
2023-01-23T20:53:33.946Z,4.50
2023-01-23T20:56:04.018Z,4.50
2023-01-23T20:58:50.997Z,4.50
2023-01-23T21:01:21.370Z,4.50
2023-01-23T21:03:49.464Z,4.40
2023-01-23T21:06:16.869Z,4.40
2023-01-23T21:08:44.411Z,4.40
2023-01-23T21:11:15.499Z,4.40
2023-01-23T21:13:42.497Z,4.40
2023-01-23T21:16:12.112Z,4.40
2023-01-23T21:18:42.757Z,4.40
2023-01-23T21:21:11.653Z,4.40
2023-01-23T21:23:38.890Z,4.40
2023-01-23T21:26:06.436Z,4.40
2023-01-23T21:28:35.633Z,4.50
2023-01-23T21:31:13.306Z,4.50
2023-01-23T21:33:40.953Z,4.50
2023-01-23T21:36:08.297Z,4.40
2023-01-23T21:38:35.380Z,4.50
2023-01-23T21:41:02.702Z,4.50
2023-01-23T21:43:29.824Z,4.50
2023-01-23T21:46:02.429Z,4.50
2023-01-23T21:48:30.220Z,4.50
2023-01-23T21:51:16.934Z,4.40
2023-01-23T21:53:47.628Z,4.40
2023-01-23T21:56:15.738Z,4.50
2023-01-23T21:58:43.050Z,4.40
2023-01-23T22:01:33.551Z,4.40
2023-01-23T22:04:14.262Z,4.40
2023-01-23T22:06:42.723Z,4.40
2023-01-23T22:09:12.777Z,4.40
2023-01-23T22:11:39.765Z,4.40
2023-01-23T22:14:07.059Z,4.40
2023-01-23T22:16:48.029Z,4.40
2023-01-23T22:19:17.360Z,4.40
2023-01-23T22:25:15.034Z,4.40
2023-01-23T22:27:41.952Z,4.40
2023-01-23T22:30:09.742Z,4.40
2023-01-23T22:32:36.847Z,4.40
2023-01-23T22:35:03.939Z,4.40
2023-01-23T22:37:31.095Z,4.40
2023-01-23T22:39:58.192Z,4.40
2023-01-23T22:42:25.381Z,4.30
2023-01-23T22:44:52.293Z,4.30
2023-01-23T22:47:19.548Z,4.30
2023-01-23T22:49:46.487Z,4.30
2023-01-23T22:52:13.670Z,4.30
2023-01-23T22:54:40.624Z,4.30
2023-01-23T22:57:07.642Z,4.30
2023-01-23T22:59:34.693Z,4.30
2023-01-23T23:02:01.722Z,4.30
2023-01-23T23:04:28.972Z,4.40
2023-01-23T23:06:56.362Z,4.40
2023-01-23T23:09:23.593Z,4.30
2023-01-23T23:11:51.987Z,4.30
2023-01-23T23:14:19.145Z,4.30
2023-01-23T23:16:46.073Z,4.30
2023-01-23T23:19:13.094Z,4.30
2023-01-23T23:21:40.261Z,4.30
2023-01-23T23:24:08.418Z,4.30
2023-01-23T23:26:35.485Z,4.30
2023-01-23T23:29:02.639Z,4.30
2023-01-23T23:31:29.956Z,4.20
2023-01-23T23:33:57.061Z,4.30
2023-01-23T23:36:24.730Z,4.20
2023-01-23T23:38:51.975Z,4.20
2023-01-23T23:41:18.921Z,4.20
2023-01-23T23:43:45.934Z,4.20
2023-01-23T23:46:13.926Z,4.20
2023-01-23T23:48:41.793Z,4.30
2023-01-23T23:51:09.745Z,4.30
2023-01-23T23:53:37.267Z,4.30
2023-01-23T23:56:04.684Z,4.30
2023-01-23T23:58:32.092Z,4.30
